createdAt,value
2023-05-17T00:00:49.105Z,13.44
2023-05-17T00:01:49.108Z,13.38
2023-05-17T00:02:49.190Z,13.32
2023-05-17T00:03:49.111Z,13.36
2023-05-17T00:04:49.151Z,13.30
2023-05-17T00:05:49.238Z,13.20
2023-05-17T00:06:49.102Z,13.20
2023-05-17T00:07:49.112Z,13.22
2023-05-17T00:08:49.099Z,13.17
2023-05-17T00:09:49.102Z,13.23
2023-05-17T00:10:49.104Z,13.07
2023-05-17T00:11:49.110Z,13.17
2023-05-17T00:12:49.097Z,13.12
2023-05-17T00:13:49.099Z,13.19
2023-05-17T00:14:49.113Z,13.12
2023-05-17T00:15:49.102Z,13.20
2023-05-17T00:16:49.095Z,13.07
2023-05-17T00:17:49.168Z,13.05
2023-05-17T00:18:49.175Z,13.12
2023-05-17T00:19:49.212Z,13.20
2023-05-17T00:20:49.095Z,13.14
2023-05-17T00:21:49.202Z,13.11
2023-05-17T00:22:49.092Z,13.10
2023-05-17T00:23:49.089Z,13.04
2023-05-17T00:24:49.099Z,13.05
2023-05-17T00:25:49.089Z,13.05
2023-05-17T00:26:49.091Z,13.00
2023-05-17T00:27:49.101Z,13.10
2023-05-17T00:28:49.088Z,13.04
2023-05-17T00:29:49.097Z,13.00
2023-05-17T00:30:49.090Z,12.90
2023-05-17T00:31:49.096Z,12.87
2023-05-17T00:32:49.144Z,12.89
2023-05-17T00:33:49.091Z,12.83
2023-05-17T00:34:49.123Z,12.86
2023-05-17T00:35:49.092Z,12.83
2023-05-17T00:36:49.077Z,12.86
2023-05-17T00:37:49.185Z,12.74
2023-05-17T00:38:49.077Z,12.83
2023-05-17T00:39:49.085Z,12.86
2023-05-17T00:40:49.090Z,12.77
2023-05-17T00:41:49.092Z,12.78
2023-05-17T00:42:49.097Z,12.79
2023-05-17T00:43:49.095Z,12.82
2023-05-17T00:44:49.090Z,12.78
2023-05-17T00:45:49.078Z,12.85
2023-05-17T00:46:49.074Z,13.01
2023-05-17T00:47:49.245Z,12.97
2023-05-17T00:48:49.102Z,13.03
2023-05-17T00:49:49.074Z,13.04
2023-05-17T00:50:49.075Z,13.03
2023-05-17T00:51:49.075Z,12.97
2023-05-17T00:52:49.093Z,13.04
2023-05-17T00:53:49.175Z,13.04
2023-05-17T00:54:49.077Z,13.04
2023-05-17T00:55:49.075Z,12.89
2023-05-17T00:56:49.066Z,13.03
2023-05-17T00:57:49.064Z,13.03
2023-05-17T00:58:49.075Z,12.87
2023-05-17T00:59:49.072Z,12.90
2023-05-17T01:00:49.066Z,12.78
2023-05-17T01:01:49.064Z,12.86
2023-05-17T01:02:49.190Z,12.83
2023-05-17T01:03:49.185Z,12.86
2023-05-17T01:04:49.127Z,12.75
2023-05-17T01:05:49.076Z,12.79
2023-05-17T01:06:49.059Z,12.75
2023-05-17T01:07:49.056Z,12.82
2023-05-17T01:08:49.064Z,12.77
2023-05-17T01:09:49.174Z,12.78
2023-05-17T01:10:49.052Z,12.78
2023-05-17T01:11:49.063Z,12.75
2023-05-17T01:12:49.073Z,12.75
2023-05-17T01:13:49.057Z,12.77
2023-05-17T01:14:49.057Z,12.75
2023-05-17T01:15:49.061Z,12.75
2023-05-17T01:16:49.051Z,12.68
2023-05-17T01:17:49.070Z,12.67
2023-05-17T01:18:49.352Z,12.70
2023-05-17T01:19:49.178Z,12.57
2023-05-17T01:20:49.048Z,12.57
2023-05-17T01:21:49.049Z,12.62
2023-05-17T01:22:49.045Z,12.67
2023-05-17T01:23:49.073Z,12.68
2023-05-17T01:24:49.041Z,12.67
2023-05-17T01:25:49.134Z,12.57
2023-05-17T01:26:49.040Z,12.67
2023-05-17T01:27:49.045Z,12.60
2023-05-17T01:28:49.040Z,12.68
2023-05-17T01:29:49.038Z,12.70
2023-05-17T01:30:49.050Z,12.71
2023-05-17T01:31:49.045Z,12.77
2023-05-17T01:32:49.103Z,12.75
2023-05-17T01:33:49.126Z,12.75
2023-05-17T01:34:49.036Z,12.72
2023-05-17T01:35:49.044Z,12.74
2023-05-17T01:36:49.031Z,12.71
2023-05-17T01:37:49.036Z,12.64
2023-05-17T01:38:49.038Z,12.70
2023-05-17T01:39:49.032Z,12.70
2023-05-17T01:40:49.030Z,12.57
2023-05-17T01:41:49.217Z,12.54
2023-05-17T01:42:49.027Z,12.53
2023-05-17T01:43:49.035Z,12.57
2023-05-17T01:44:49.028Z,12.38
2023-05-17T01:45:49.028Z,12.47
2023-05-17T01:46:49.022Z,12.46
2023-05-17T01:47:49.080Z,12.47
2023-05-17T01:48:49.054Z,12.56
2023-05-17T01:49:49.022Z,12.54
2023-05-17T01:50:49.030Z,12.54
2023-05-17T01:51:49.034Z,12.52
2023-05-17T01:52:49.017Z,12.60
2023-05-17T01:53:49.019Z,12.47
2023-05-17T01:54:49.025Z,12.50
2023-05-17T01:55:49.028Z,12.47
2023-05-17T01:56:49.036Z,12.47
2023-05-17T01:57:49.158Z,12.45
2023-05-17T01:58:49.033Z,12.46
2023-05-17T01:59:49.017Z,12.52
2023-05-17T02:00:49.009Z,12.49
2023-05-17T02:01:49.016Z,12.45
2023-05-17T02:02:49.044Z,12.38
2023-05-17T02:03:49.064Z,12.34
2023-05-17T02:04:49.129Z,12.54
2023-05-17T02:05:49.019Z,12.57
2023-05-17T02:06:49.004Z,12.54
2023-05-17T02:07:49.011Z,12.46
2023-05-17T02:08:49.021Z,12.52
2023-05-17T02:09:49.009Z,12.59
2023-05-17T02:10:49.000Z,12.46
2023-05-17T02:11:49.003Z,12.56
2023-05-17T02:12:49.003Z,12.54
2023-05-17T02:13:49.043Z,12.57
2023-05-17T02:14:49.077Z,12.41
2023-05-17T02:15:49.007Z,12.42
2023-05-17T02:16:49.001Z,12.45
2023-05-17T02:17:49.153Z,12.54
2023-05-17T02:18:49.092Z,12.57
2023-05-17T02:19:49.009Z,12.54
2023-05-17T02:20:48.997Z,12.42
2023-05-17T02:21:49.014Z,12.41
2023-05-17T02:22:49.000Z,12.54
2023-05-17T02:23:48.993Z,12.56
2023-05-17T02:24:49.048Z,12.57
2023-05-17T02:25:49.002Z,12.45
2023-05-17T02:26:48.990Z,12.54
2023-05-17T02:27:48.996Z,12.57
2023-05-17T02:28:48.988Z,12.59
2023-05-17T02:29:49.108Z,12.53
2023-05-17T02:30:48.988Z,12.65
2023-05-17T02:31:48.995Z,12.54
2023-05-17T02:32:49.047Z,12.60
2023-05-17T02:33:49.014Z,12.52
2023-05-17T02:34:48.988Z,12.41
2023-05-17T02:35:48.987Z,12.59
2023-05-17T02:36:48.979Z,12.70
2023-05-17T02:37:48.986Z,12.62
2023-05-17T02:38:48.982Z,12.67
2023-05-17T02:39:48.988Z,12.77
2023-05-17T02:40:48.979Z,12.77
2023-05-17T02:41:48.983Z,12.85
2023-05-17T02:42:48.976Z,12.82
2023-05-17T02:43:48.976Z,12.78
2023-05-17T02:44:48.978Z,12.54
2023-05-17T02:45:49.078Z,12.54
2023-05-17T02:46:49.029Z,12.56
2023-05-17T02:47:49.038Z,12.65
2023-05-17T02:48:48.970Z,12.64
2023-05-17T02:49:48.970Z,12.75
2023-05-17T02:50:48.970Z,12.75
2023-05-17T02:51:48.969Z,12.85
2023-05-17T02:52:48.981Z,12.97
2023-05-17T02:53:48.961Z,13.03
2023-05-17T02:54:48.975Z,13.01
2023-05-17T02:55:48.968Z,12.97
2023-05-17T02:56:48.964Z,13.05
2023-05-17T02:57:48.969Z,13.03
2023-05-17T02:58:48.961Z,13.03
2023-05-17T02:59:48.957Z,13.11
2023-05-17T03:00:48.961Z,13.07
2023-05-17T03:01:49.054Z,13.14
2023-05-17T03:02:49.083Z,13.08
2023-05-17T03:03:49.301Z,13.04
2023-05-17T03:04:49.037Z,13.22
2023-05-17T03:05:48.950Z,13.19
2023-05-17T03:06:48.961Z,13.20
2023-05-17T03:07:48.949Z,13.19
2023-05-17T03:08:48.951Z,13.14
2023-05-17T03:09:48.963Z,13.11
2023-05-17T03:10:48.950Z,13.28
2023-05-17T03:11:48.951Z,13.14
2023-05-17T03:12:48.948Z,13.08
2023-05-17T03:13:48.949Z,13.12
2023-05-17T03:14:48.955Z,13.12
2023-05-17T03:15:48.950Z,13.19
2023-05-17T03:16:48.948Z,13.19
2023-05-17T03:17:49.138Z,13.19
2023-05-17T03:18:49.124Z,13.12
2023-05-17T03:19:49.047Z,13.10
2023-05-17T03:20:48.937Z,13.10
2023-05-17T03:21:48.936Z,13.05
2023-05-17T03:22:48.948Z,13.03
2023-05-17T03:23:48.937Z,13.04
2023-05-17T03:24:48.942Z,13.07
2023-05-17T03:25:48.948Z,13.04
2023-05-17T03:26:48.951Z,13.10
2023-05-17T03:27:49.023Z,13.12
2023-05-17T03:28:48.933Z,13.25
2023-05-17T03:29:48.933Z,13.41
2023-05-17T03:30:48.962Z,13.45
2023-05-17T03:31:48.930Z,13.39
2023-05-17T03:32:49.020Z,13.39
2023-05-17T03:33:49.196Z,13.33
2023-05-17T03:34:48.927Z,13.39
2023-05-17T03:35:48.925Z,13.38
2023-05-17T03:36:48.947Z,13.36
2023-05-17T03:37:48.940Z,13.25
2023-05-17T03:38:48.921Z,13.45
2023-05-17T03:39:48.921Z,13.38
2023-05-17T03:40:48.922Z,13.28
2023-05-17T03:41:48.933Z,13.32
2023-05-17T03:42:48.920Z,13.32
2023-05-17T03:43:48.918Z,13.39
2023-05-17T03:44:48.930Z,13.42
2023-05-17T03:45:48.916Z,13.44
2023-05-17T03:46:48.912Z,13.52
2023-05-17T03:47:48.949Z,13.42
2023-05-17T03:48:48.999Z,13.41
2023-05-17T03:49:49.261Z,13.52
2023-05-17T03:50:48.922Z,13.63
2023-05-17T03:51:48.909Z,13.45
2023-05-17T03:52:48.948Z,13.48
2023-05-17T03:53:48.907Z,13.48
2023-05-17T03:54:48.922Z,13.49
2023-05-17T03:55:48.904Z,13.51
2023-05-17T03:56:48.915Z,13.51
2023-05-17T03:57:48.908Z,13.60
2023-05-17T03:58:48.922Z,13.64
2023-05-17T03:59:48.899Z,13.73
2023-05-17T04:00:48.908Z,13.73
2023-05-17T04:01:48.903Z,13.62
2023-05-17T04:02:48.980Z,13.51
2023-05-17T04:03:48.917Z,13.67
2023-05-17T04:04:48.973Z,13.77
2023-05-17T04:05:49.066Z,13.77
2023-05-17T04:06:48.908Z,13.75
2023-05-17T04:07:48.936Z,13.71
2023-05-17T04:08:48.921Z,13.89
2023-05-17T04:09:48.919Z,13.69
2023-05-17T04:10:48.904Z,13.78
2023-05-17T04:11:48.921Z,13.82
2023-05-17T04:12:48.895Z,13.91
2023-05-17T04:13:48.894Z,13.84
2023-05-17T04:14:48.899Z,13.88
2023-05-17T04:15:48.900Z,13.97
2023-05-17T04:16:48.908Z,14.10
2023-05-17T04:17:48.960Z,14.07
2023-05-17T04:18:48.962Z,14.15
2023-05-17T04:19:48.933Z,14.10
2023-05-17T04:20:48.899Z,14.00
2023-05-17T04:21:48.986Z,13.95
2023-05-17T04:22:48.896Z,13.89
2023-05-17T04:23:48.894Z,13.88
2023-05-17T04:24:48.899Z,13.84
2023-05-17T04:25:48.883Z,13.75
2023-05-17T04:26:48.894Z,13.69
2023-05-17T04:27:48.886Z,13.81
2023-05-17T04:28:48.900Z,13.79
2023-05-17T04:29:48.899Z,13.84
2023-05-17T04:30:48.917Z,13.96
2023-05-17T04:31:48.976Z,14.03
2023-05-17T04:32:48.914Z,13.85
2023-05-17T04:33:48.995Z,13.85
2023-05-17T04:34:48.880Z,13.92
2023-05-17T04:35:48.891Z,13.84
2023-05-17T04:36:48.883Z,13.85
2023-05-17T04:37:49.030Z,13.78
2023-05-17T04:38:48.883Z,13.62
2023-05-17T04:39:48.877Z,13.71
2023-05-17T04:40:48.877Z,13.81
2023-05-17T04:41:49.011Z,13.85
2023-05-17T04:42:48.875Z,13.79
2023-05-17T04:43:48.881Z,13.85
2023-05-17T04:44:48.892Z,13.71
2023-05-17T04:45:48.870Z,13.57
2023-05-17T04:46:48.896Z,13.71
2023-05-17T04:47:48.929Z,13.70
2023-05-17T04:48:48.957Z,13.75
2023-05-17T04:49:48.863Z,13.82
2023-05-17T04:50:48.873Z,13.78
2023-05-17T04:51:48.869Z,13.78
2023-05-17T04:52:48.870Z,13.71
2023-05-17T04:53:49.018Z,13.71
2023-05-17T04:54:48.869Z,13.84
2023-05-17T04:55:48.866Z,13.82
2023-05-17T04:56:48.874Z,13.82
2023-05-17T04:57:48.872Z,13.84
2023-05-17T04:58:50.468Z,13.97
2023-05-17T04:59:48.866Z,13.91
2023-05-17T05:00:49.010Z,14.03
2023-05-17T05:01:48.858Z,14.10
2023-05-17T05:02:48.893Z,14.07
2023-05-17T05:03:48.875Z,14.03
2023-05-17T05:04:48.884Z,13.97
2023-05-17T05:05:48.858Z,13.88
2023-05-17T05:06:48.865Z,13.89
2023-05-17T05:07:48.851Z,13.99
2023-05-17T05:08:48.859Z,13.96
2023-05-17T05:09:48.944Z,13.92
2023-05-17T05:10:48.856Z,13.88
2023-05-17T05:11:48.855Z,13.92
2023-05-17T05:12:48.860Z,13.91
2023-05-17T05:13:48.853Z,13.97
2023-05-17T05:14:48.851Z,14.02
2023-05-17T05:15:48.845Z,14.10
2023-05-17T05:16:48.860Z,14.00
2023-05-17T05:17:48.963Z,13.67
2023-05-17T05:18:49.016Z,13.81
2023-05-17T05:19:48.882Z,13.77
2023-05-17T05:20:48.858Z,13.88
2023-05-17T05:21:48.842Z,13.88
2023-05-17T05:22:48.848Z,13.82
2023-05-17T05:23:48.848Z,13.96
2023-05-17T05:24:48.841Z,13.95
2023-05-17T05:25:48.945Z,13.95
2023-05-17T05:26:48.842Z,14.06
2023-05-17T05:27:48.840Z,14.17
2023-05-17T05:28:48.838Z,14.17
2023-05-17T05:29:48.837Z,14.14
2023-05-17T05:30:48.840Z,13.95
2023-05-17T05:31:48.833Z,14.00
2023-05-17T05:32:48.905Z,14.06
2023-05-17T05:33:48.903Z,13.95
2023-05-17T05:34:48.924Z,14.12
2023-05-17T05:35:48.887Z,14.12
2023-05-17T05:36:48.848Z,14.21
2023-05-17T05:37:48.869Z,14.17
2023-05-17T05:38:48.849Z,14.22
2023-05-17T05:39:48.832Z,14.35
2023-05-17T05:40:48.832Z,14.32
2023-05-17T05:41:48.990Z,14.37
2023-05-17T05:42:48.841Z,14.36
2023-05-17T05:43:48.831Z,14.36
2023-05-17T05:44:48.830Z,14.27
2023-05-17T05:45:48.830Z,14.42
2023-05-17T05:46:48.831Z,14.45
2023-05-17T05:47:48.888Z,14.40
2023-05-17T05:48:48.848Z,14.51
2023-05-17T05:49:48.826Z,14.64
2023-05-17T05:50:48.829Z,14.72
2023-05-17T05:51:48.832Z,14.75
2023-05-17T05:52:48.837Z,14.88
2023-05-17T05:53:48.820Z,14.96
2023-05-17T05:54:48.824Z,15.02
2023-05-17T05:55:48.822Z,15.03
2023-05-17T05:56:48.826Z,15.09
2023-05-17T05:57:48.916Z,15.10
2023-05-17T05:58:48.829Z,15.13
2023-05-17T05:59:48.814Z,15.10
2023-05-17T06:00:48.830Z,14.94
2023-05-17T06:01:48.827Z,15.01
2023-05-17T06:02:48.864Z,15.01
2023-05-17T06:03:48.854Z,15.14
2023-05-17T06:04:48.827Z,15.09
2023-05-17T06:05:48.975Z,15.07
2023-05-17T06:06:48.967Z,15.16
2023-05-17T06:07:48.819Z,15.06
2023-05-17T06:08:48.817Z,15.11
2023-05-17T06:09:48.815Z,15.21
2023-05-17T06:10:48.827Z,15.20
2023-05-17T06:11:48.814Z,15.29
2023-05-17T06:12:48.851Z,15.17
2023-05-17T06:13:49.025Z,15.31
2023-05-17T06:14:48.832Z,15.32
2023-05-17T06:15:48.817Z,15.54
2023-05-17T06:16:48.827Z,15.54
2023-05-17T06:17:48.930Z,15.60
2023-05-17T06:18:51.282Z,15.62
2023-05-17T06:19:48.841Z,15.62
2023-05-17T06:20:48.812Z,15.59
2023-05-17T06:21:48.833Z,15.38
2023-05-17T06:22:48.839Z,15.11
2023-05-17T06:23:48.813Z,15.01
2023-05-17T06:24:48.822Z,15.07
2023-05-17T06:25:48.807Z,15.10
2023-05-17T06:26:48.815Z,15.19
2023-05-17T06:27:48.806Z,15.19
2023-05-17T06:28:48.810Z,15.34
2023-05-17T06:29:49.088Z,15.07
2023-05-17T06:30:48.819Z,15.21
2023-05-17T06:31:48.808Z,15.32
2023-05-17T06:32:48.862Z,15.25
2023-05-17T06:33:48.877Z,15.19
2023-05-17T06:34:48.801Z,15.27
2023-05-17T06:35:56.754Z,15.36
2023-05-17T06:36:48.803Z,15.41
2023-05-17T06:37:48.804Z,15.60
2023-05-17T06:38:48.802Z,15.60
2023-05-17T06:39:55.862Z,15.65
2023-05-17T06:40:48.845Z,15.59
2023-05-17T06:41:48.809Z,15.65
2023-05-17T06:42:48.810Z,15.89
2023-05-17T06:43:48.805Z,16.02
2023-05-17T06:44:48.806Z,16.07
2023-05-17T06:45:48.956Z,16.12
2023-05-17T06:46:48.813Z,16.38
2023-05-17T06:47:48.880Z,16.50
2023-05-17T06:48:51.210Z,16.64
2023-05-17T06:49:48.795Z,16.76
2023-05-17T06:50:48.798Z,17.00
2023-05-17T06:51:48.797Z,17.06
2023-05-17T06:52:48.794Z,17.04
2023-05-17T06:53:48.811Z,17.07
2023-05-17T06:54:48.801Z,17.00
2023-05-17T06:55:48.793Z,16.96
2023-05-17T06:56:48.814Z,16.60
2023-05-17T06:57:48.803Z,16.60
2023-05-17T06:58:48.802Z,16.58
2023-05-17T06:59:48.795Z,16.60
2023-05-17T07:00:48.804Z,16.56
2023-05-17T07:01:48.905Z,16.39
2023-05-17T07:02:48.863Z,16.34
2023-05-17T07:03:48.943Z,16.30
2023-05-17T07:04:48.853Z,16.20
2023-05-17T07:05:48.802Z,16.21
2023-05-17T07:06:48.793Z,16.27
2023-05-17T07:07:48.795Z,16.21
2023-05-17T07:08:48.799Z,16.43
2023-05-17T07:09:48.799Z,16.34
2023-05-17T07:10:48.790Z,16.35
2023-05-17T07:11:48.791Z,16.41
2023-05-17T07:12:48.800Z,16.27
2023-05-17T07:13:48.799Z,16.41
2023-05-17T07:14:48.794Z,16.52
2023-05-17T07:15:48.800Z,16.67
2023-05-17T07:16:48.788Z,16.75
2023-05-17T07:17:49.092Z,16.88
2023-05-17T07:18:48.911Z,16.85
2023-05-17T07:19:48.907Z,17.00
2023-05-17T07:20:48.786Z,17.11
2023-05-17T07:21:48.794Z,17.12
2023-05-17T07:22:48.794Z,17.19
2023-05-17T07:23:48.795Z,17.34
2023-05-17T07:24:48.790Z,17.40
2023-05-17T07:25:48.800Z,17.51
2023-05-17T07:26:49.798Z,17.72
2023-05-17T07:27:48.795Z,17.71
2023-05-17T07:28:48.791Z,17.77
2023-05-17T07:29:48.806Z,17.81
2023-05-17T07:30:48.788Z,18.02
2023-05-17T07:31:48.806Z,18.25
2023-05-17T07:32:48.893Z,18.35
2023-05-17T07:33:48.945Z,18.39
2023-05-17T07:34:48.791Z,18.57
2023-05-17T07:35:48.833Z,18.84
2023-05-17T07:36:48.801Z,19.07
2023-05-17T07:37:48.804Z,19.28
2023-05-17T07:38:48.793Z,19.16
2023-05-17T07:39:48.791Z,19.22
2023-05-17T07:40:48.793Z,19.50
2023-05-17T07:41:48.808Z,19.88
2023-05-17T07:42:48.836Z,20.43
2023-05-17T07:43:48.796Z,20.72
2023-05-17T07:44:48.792Z,21.16
2023-05-17T07:45:48.795Z,21.25
2023-05-17T07:46:48.828Z,21.35
2023-05-17T07:47:48.836Z,21.43
2023-05-17T07:48:48.878Z,20.85
2023-05-17T07:49:48.946Z,20.41
2023-05-17T07:50:48.799Z,20.02
2023-05-17T07:51:48.805Z,19.84
2023-05-17T07:52:48.804Z,20.03
2023-05-17T07:53:48.821Z,20.79
2023-05-17T07:54:48.807Z,21.22
2023-05-17T07:55:48.813Z,21.62
2023-05-17T07:56:48.797Z,22.55
2023-05-17T07:57:48.815Z,22.68
2023-05-17T07:58:48.813Z,23.36
2023-05-17T07:59:48.801Z,23.90
2023-05-17T08:00:48.819Z,24.34
2023-05-17T08:01:48.819Z,24.81
2023-05-17T08:02:48.849Z,25.40
2023-05-17T08:03:48.812Z,25.24
2023-05-17T08:04:48.835Z,25.24
2023-05-17T08:05:48.870Z,25.51
2023-05-17T08:06:48.834Z,25.85
2023-05-17T08:07:48.822Z,25.91
2023-05-17T08:08:48.823Z,25.92
2023-05-17T08:09:48.835Z,25.76
2023-05-17T08:10:48.827Z,26.09
2023-05-17T08:11:48.846Z,26.55
2023-05-17T08:12:48.834Z,26.76
2023-05-17T08:13:48.837Z,27.09
2023-05-17T08:14:48.855Z,27.25
2023-05-17T08:15:50.162Z,27.41
2023-05-17T08:16:48.856Z,27.34
2023-05-17T08:17:48.982Z,26.73
2023-05-17T08:18:48.963Z,26.75
2023-05-17T08:19:48.889Z,26.94
2023-05-17T08:20:48.864Z,27.24
2023-05-17T08:21:48.895Z,27.59
2023-05-17T08:22:48.877Z,27.90
2023-05-17T08:23:48.884Z,28.24
2023-05-17T08:24:48.896Z,28.48
2023-05-17T08:25:48.898Z,28.81
2023-05-17T08:26:48.906Z,29.02
2023-05-17T08:27:48.951Z,28.92
2023-05-17T08:28:48.921Z,29.14
2023-05-17T08:29:48.932Z,29.41
2023-05-17T08:30:48.939Z,29.57
2023-05-17T08:31:48.944Z,29.78
2023-05-17T08:32:49.085Z,29.76
2023-05-17T08:33:49.001Z,29.85
2023-05-17T08:34:48.971Z,29.28
2023-05-17T08:35:48.975Z,29.53
2023-05-17T08:36:49.059Z,29.65
2023-05-17T08:37:49.224Z,29.53
2023-05-17T08:38:49.005Z,29.80
2023-05-17T08:39:49.044Z,29.74
2023-05-17T08:40:49.025Z,30.01
2023-05-17T08:41:49.046Z,29.97
2023-05-17T08:42:49.050Z,30.04
2023-05-17T08:43:49.084Z,30.04
2023-05-17T08:44:49.075Z,30.24
2023-05-17T08:45:49.087Z,29.82
2023-05-17T08:46:49.095Z,29.87
2023-05-17T08:47:49.178Z,29.68
2023-05-17T08:48:49.197Z,30.01
2023-05-17T08:49:49.135Z,29.92
2023-05-17T08:50:49.152Z,30.13
2023-05-17T08:51:49.166Z,30.38
2023-05-17T08:52:49.203Z,30.27
2023-05-17T08:53:49.235Z,29.89
2023-05-17T08:54:49.196Z,30.07
2023-05-17T08:55:49.214Z,29.82
2023-05-17T08:56:49.230Z,29.70
2023-05-17T08:57:49.248Z,29.79
2023-05-17T08:58:56.606Z,29.60
2023-05-17T08:59:49.272Z,29.53
2023-05-17T09:00:49.288Z,29.42
2023-05-17T09:01:49.297Z,29.67
2023-05-17T09:02:49.395Z,29.82
2023-05-17T09:03:49.358Z,30.26
2023-05-17T09:04:49.447Z,30.39
2023-05-17T09:05:49.389Z,30.42
2023-05-17T09:06:49.372Z,30.53
2023-05-17T09:07:49.395Z,30.08
2023-05-17T09:08:49.405Z,30.43
2023-05-17T09:09:49.448Z,30.60
2023-05-17T09:10:49.447Z,30.62
2023-05-17T09:11:49.452Z,31.01
2023-05-17T09:12:49.474Z,31.17
2023-05-17T09:13:49.506Z,31.06
2023-05-17T09:14:49.513Z,31.16
2023-05-17T09:15:49.522Z,31.36
2023-05-17T09:16:49.530Z,31.28
2023-05-17T09:17:49.688Z,31.31
2023-05-17T09:18:49.651Z,31.62
2023-05-17T09:19:49.647Z,31.95
2023-05-17T09:20:49.602Z,31.95
2023-05-17T09:21:49.625Z,31.23
2023-05-17T09:22:49.635Z,31.26
2023-05-17T09:24:01.680Z,31.63
2023-05-17T09:24:49.672Z,31.72
2023-05-17T09:25:49.740Z,31.76
2023-05-17T09:26:49.719Z,31.48
2023-05-17T09:27:49.734Z,31.88
2023-05-17T09:28:49.753Z,32.29
2023-05-17T09:29:49.781Z,32.56
2023-05-17T09:30:50.196Z,32.45
2023-05-17T09:31:49.812Z,32.35
2023-05-17T09:33:49.939Z,32.22
2023-05-17T09:34:49.893Z,32.41
2023-05-17T09:35:49.886Z,32.04
2023-05-17T09:36:49.906Z,31.99
2023-05-17T09:37:49.929Z,31.48
2023-05-17T09:38:49.943Z,31.75
2023-05-17T09:39:49.966Z,32.28
2023-05-17T09:40:49.980Z,32.75
2023-05-17T09:41:50.020Z,33.47
2023-05-17T09:42:50.028Z,33.73
2023-05-17T09:43:50.048Z,33.49
2023-05-17T09:44:50.064Z,33.07
2023-05-17T09:45:50.081Z,33.41
2023-05-17T09:46:50.098Z,33.14
2023-05-17T09:47:50.284Z,33.22
2023-05-17T09:48:50.336Z,33.42
2023-05-17T09:49:50.185Z,33.11
2023-05-17T09:50:50.186Z,32.77
2023-05-17T09:51:50.210Z,32.88
2023-05-17T09:52:50.223Z,33.03
2023-05-17T09:53:50.262Z,33.39
2023-05-17T09:54:50.270Z,33.06
2023-05-17T09:55:50.307Z,32.72
2023-05-17T09:56:50.319Z,32.87
2023-05-17T09:57:50.386Z,33.60
2023-05-17T09:58:50.361Z,33.82
2023-05-17T09:59:50.383Z,34.00
2023-05-17T10:00:50.413Z,33.93
2023-05-17T10:01:50.423Z,33.35
2023-05-17T10:02:50.528Z,33.11
2023-05-17T10:03:50.480Z,32.99
2023-05-17T10:04:50.543Z,32.69
2023-05-17T10:05:50.514Z,33.03
2023-05-17T10:06:52.446Z,33.56
2023-05-17T10:07:50.555Z,33.65
2023-05-17T10:08:50.581Z,34.28
2023-05-17T10:09:50.618Z,34.30
2023-05-17T10:10:50.624Z,34.13
2023-05-17T10:11:50.654Z,33.90
2023-05-17T10:12:50.689Z,33.76
2023-05-17T10:13:50.775Z,34.09
2023-05-17T10:14:50.742Z,34.77
2023-05-17T10:15:50.741Z,34.37
2023-05-17T10:16:50.765Z,34.00
2023-05-17T10:17:50.800Z,34.08
2023-05-17T10:18:50.878Z,33.88
2023-05-17T10:19:50.959Z,33.65
2023-05-17T10:20:50.858Z,33.18
2023-05-17T10:21:50.920Z,32.89
2023-05-17T10:22:50.918Z,32.50
2023-05-17T10:23:50.928Z,32.93
2023-05-17T10:24:50.958Z,32.63
2023-05-17T10:25:50.978Z,32.30
2023-05-17T10:26:51.012Z,32.75
2023-05-17T10:27:51.024Z,32.74
2023-05-17T10:28:51.049Z,32.70
2023-05-17T10:29:51.115Z,32.85
2023-05-17T10:30:51.092Z,33.22
2023-05-17T10:31:51.327Z,33.07
2023-05-17T10:32:51.231Z,33.66
2023-05-17T10:33:51.214Z,33.94
2023-05-17T10:35:01.433Z,33.79
2023-05-17T10:35:51.209Z,33.69
2023-05-17T10:36:51.233Z,33.59
2023-05-17T10:37:51.265Z,33.32
2023-05-17T10:38:51.282Z,33.42
2023-05-17T10:39:51.305Z,33.65
2023-05-17T10:40:51.331Z,33.87
2023-05-17T10:41:52.800Z,33.38
2023-05-17T10:42:51.372Z,32.82
2023-05-17T10:43:51.399Z,32.01
2023-05-17T10:44:51.418Z,32.13
2023-05-17T10:45:51.475Z,32.43
2023-05-17T10:46:51.491Z,32.85
2023-05-17T10:47:51.554Z,32.77
2023-05-17T10:48:51.575Z,32.13
2023-05-17T10:49:51.564Z,32.11
2023-05-17T10:51:01.204Z,32.19
2023-05-17T10:51:51.595Z,32.50
2023-05-17T10:52:51.597Z,33.12
2023-05-17T10:53:51.620Z,33.39
2023-05-17T10:54:51.642Z,33.75
2023-05-17T10:55:51.664Z,33.65
2023-05-17T10:56:51.686Z,33.61
2023-05-17T10:57:51.707Z,33.26
2023-05-17T10:58:51.721Z,33.12
2023-05-17T10:59:51.749Z,32.89
2023-05-17T11:00:53.265Z,32.85
2023-05-17T11:01:51.975Z,32.96
2023-05-17T11:02:51.844Z,32.77
2023-05-17T11:03:51.825Z,32.97
2023-05-17T11:04:51.847Z,33.11
2023-05-17T11:05:52.417Z,33.57
2023-05-17T11:06:51.988Z,33.87
2023-05-17T11:07:51.905Z,34.09
2023-05-17T11:08:51.914Z,34.82
2023-05-17T11:09:51.935Z,34.97
2023-05-17T11:10:51.962Z,34.89
2023-05-17T11:11:51.972Z,34.91
2023-05-17T11:12:51.986Z,34.42
2023-05-17T11:13:52.027Z,34.52
2023-05-17T11:14:52.022Z,34.37
2023-05-17T11:15:52.053Z,34.43
2023-05-17T11:16:52.114Z,34.64
2023-05-17T11:17:52.193Z,34.28
2023-05-17T11:18:52.308Z,34.35
2023-05-17T11:19:52.192Z,34.30
2023-05-17T11:20:52.410Z,34.09
2023-05-17T11:21:52.154Z,34.10
2023-05-17T11:22:52.156Z,33.98
2023-05-17T11:23:52.169Z,33.81
2023-05-17T11:24:52.189Z,33.91
2023-05-17T11:25:54.157Z,33.47
2023-05-17T11:26:52.226Z,33.60
2023-05-17T11:27:52.242Z,33.61
2023-05-17T11:28:52.250Z,33.35
2023-05-17T11:29:52.273Z,33.50
2023-05-17T11:30:52.271Z,33.81
2023-05-17T11:31:52.284Z,34.65
2023-05-17T11:32:52.409Z,34.69
2023-05-17T11:33:52.375Z,34.78
2023-05-17T11:34:52.338Z,34.50
2023-05-17T11:35:52.342Z,34.61
2023-05-17T11:36:52.389Z,34.91
2023-05-17T11:37:52.390Z,34.13
2023-05-17T11:38:58.329Z,33.39
2023-05-17T11:39:53.475Z,33.29
2023-05-17T11:40:52.424Z,33.60
2023-05-17T11:41:52.452Z,33.32
2023-05-17T11:42:52.446Z,33.42
2023-05-17T11:43:52.477Z,33.41
2023-05-17T11:44:52.474Z,33.49
2023-05-17T11:45:53.714Z,33.65
2023-05-17T11:46:52.507Z,33.71
2023-05-17T11:47:52.632Z,33.82
2023-05-17T11:48:52.584Z,33.42
2023-05-17T11:49:54.325Z,34.12
2023-05-17T11:50:52.558Z,33.73
2023-05-17T11:51:52.577Z,33.38
2023-05-17T11:52:52.582Z,33.21
2023-05-17T11:53:52.588Z,33.75
2023-05-17T11:54:52.606Z,33.54
2023-05-17T11:55:52.648Z,33.50
2023-05-17T11:56:52.633Z,33.34
2023-05-17T11:57:52.639Z,33.16
2023-05-17T11:58:52.698Z,33.11
2023-05-17T11:59:52.674Z,32.69
2023-05-17T12:00:52.730Z,32.56
2023-05-17T12:01:52.707Z,32.30
2023-05-17T12:02:52.829Z,32.33
2023-05-17T12:03:52.724Z,32.56
2023-05-17T12:04:52.835Z,32.37
2023-05-17T12:05:52.850Z,32.43
2023-05-17T12:06:53.343Z,32.69
2023-05-17T12:07:52.794Z,32.51
2023-05-17T12:08:52.798Z,32.32
2023-05-17T12:09:52.822Z,31.99
2023-05-17T12:10:52.795Z,31.86
2023-05-17T12:11:52.808Z,31.68
2023-05-17T12:12:52.822Z,31.58
2023-05-17T12:13:52.839Z,31.38
2023-05-17T12:14:52.860Z,31.36
2023-05-17T12:15:52.856Z,31.34
2023-05-17T12:16:52.875Z,31.12
2023-05-17T12:17:52.993Z,31.31
2023-05-17T12:18:53.040Z,30.89
2023-05-17T12:19:52.994Z,30.98
2023-05-17T12:20:52.918Z,31.12
2023-05-17T12:21:52.988Z,31.09
2023-05-17T12:22:52.943Z,30.99
2023-05-17T12:23:52.963Z,31.02
2023-05-17T12:24:52.988Z,31.04
2023-05-17T12:25:52.963Z,30.80
2023-05-17T12:26:52.984Z,30.43
2023-05-17T12:27:52.989Z,30.24
2023-05-17T12:28:53.036Z,30.57
2023-05-17T12:29:53.002Z,30.58
2023-05-17T12:30:53.029Z,30.84
2023-05-17T12:31:53.048Z,31.04
2023-05-17T12:32:53.234Z,31.50
2023-05-17T12:33:53.207Z,31.65
2023-05-17T12:34:53.083Z,31.47
2023-05-17T12:35:53.073Z,31.43
2023-05-17T12:36:53.080Z,31.20
2023-05-17T12:37:53.150Z,31.47
2023-05-17T12:38:53.104Z,31.19
2023-05-17T12:39:53.116Z,31.29
2023-05-17T12:40:53.145Z,31.31
2023-05-17T12:41:53.131Z,31.14
2023-05-17T12:42:53.143Z,31.58
2023-05-17T12:43:57.195Z,31.48
2023-05-17T12:44:53.156Z,31.73
2023-05-17T12:45:53.173Z,31.54
2023-05-17T12:46:53.185Z,30.79
2023-05-17T12:47:53.245Z,30.95
2023-05-17T12:48:53.262Z,30.92
2023-05-17T12:49:53.210Z,31.17
2023-05-17T12:50:53.227Z,31.47
2023-05-17T12:51:53.222Z,31.48
2023-05-17T12:52:53.240Z,31.84
2023-05-17T12:53:53.258Z,32.10